Time;durP1;ratioP1;P1;durP2;ratioP2;P2;SDS_P1;SDS_P2;PMS_P1;PMS_P2;Temp;Humidity;BMP_temperature;BMP_pressure;BME280_temperature;BME280_humidity;BME280_pressure;Samples;Min_cycle;Max_cycle;Signal;HPM_P1;HPM_P2
2023/03/16 00:00:12;;;;;;;11.50;10.27;;;7.40;99.90;;;7.42;72.58;101499.81;5075453;28;20055;-68
2023/03/16 00:02:41;;;;;;;11.45;9.73;;;7.30;99.90;;;7.40;72.38;101501.53;5075932;28;20044;-68
2023/03/16 00:05:12;;;;;;;14.55;10.40;;;7.30;99.90;;;7.35;72.32;101503.22;5075416;28;20112;-68
2023/03/16 00:07:41;;;;;;;;;;;7.30;99.90;;;7.47;72.42;101498.13;5076401;28;20048;-68
2023/03/16 00:10:11;;;;;;;14.02;11.00;;;7.30;99.90;;;7.51;72.35;101494.72;5075433;28;19921;-69
2023/03/16 00:12:42;;;;;;;15.48;11.57;;;7.30;99.90;;;7.47;72.14;101498.13;5075547;28;20083;-68
2023/03/16 00:15:12;;;;;;;12.55;10.27;;;7.40;99.90;;;7.49;72.63;101490.28;5075323;28;20051;-68
2023/03/16 00:17:41;;;;;;;12.98;11.27;;;7.30;99.90;;;7.52;72.91;101488.59;5075332;28;20049;-68
2023/03/16 00:20:11;;;;;;;15.93;10.48;;;7.40;99.90;;;7.49;73.17;101487.66;5075151;28;20052;-69
2023/03/16 00:22:40;;;;;;;;;;;7.40;99.90;;;7.54;73.07;101476.34;5075691;28;20151;-68
2023/03/16 00:25:11;;;;;;;11.50;10.25;;;7.40;99.90;;;7.57;73.28;101483.44;5075126;28;19960;-68
2023/03/16 00:27:40;;;;;;;;;;;7.40;99.90;;;7.44;73.42;101487.56;5075616;28;20087;-68
2023/03/16 00:30:10;;;;;;;12.57;10.70;;;7.40;99.90;;;7.43;72.96;101470.03;5073724;28;19925;-68
2023/03/16 00:32:40;;;;;;;18.60;10.48;;;7.30;99.90;;;7.59;73.02;101476.44;5074820;28;20064;-67
2023/03/16 00:35:09;;;;;;;15.13;10.52;;;7.40;99.90;;;7.62;72.63;101477.38;5075215;28;20052;-68
2023/03/16 00:37:38;;;;;;;15.48;10.27;;;7.50;99.90;;;7.76;71.89;101465.31;5074886;28;20052;-68
2023/03/16 00:40:10;;;;;;;14.88;10.40;;;7.60;99.90;;;7.79;72.39;101457.47;5074731;28;20044;-68
2023/03/16 00:42:38;;;;;;;12.75;10.85;;;7.70;99.90;;;7.82;72.88;101457.50;5074462;28;20071;-68
2023/03/16 00:45:09;;;;;;;12.60;10.43;;;7.70;99.90;;;7.84;72.53;101461.06;5074783;28;20502;-67
2023/03/16 00:47:37;;;;;;;12.60;9.90;;;7.70;99.90;;;7.92;72.29;101467.34;5074989;28;20052;-68
2023/03/16 00:50:08;;;;;;;15.07;10.43;;;7.80;99.90;;;7.99;72.70;101479.72;5074817;28;20076;-67
2023/03/16 00:52:36;;;;;;;17.77;11.55;;;7.90;99.90;;;7.91;72.27;101452.41;5074700;28;20451;-68
2023/03/16 00:55:05;;;;;;;12.48;10.50;;;7.90;99.90;;;8.02;72.75;101457.81;5074594;28;20036;-68
2023/03/16 00:57:34;;;;;;;14.20;10.23;;;7.90;99.90;;;8.06;72.42;101444.72;5074470;28;20044;-70
2023/03/16 01:00:11;;;;;;;15.73;10.50;;;8.00;99.90;;;8.07;72.70;101445.63;5074627;28;20040;-68
2023/03/16 01:02:40;;;;;;;14.10;11.07;;;8.00;99.90;;;8.16;73.03;101441.38;5074471;28;20072;-68
2023/03/16 01:05:11;;;;;;;12.80;10.27;;;8.00;99.90;;;8.16;72.70;101440.50;5073171;28;20051;-68
2023/03/16 01:07:40;;;;;;;14.57;10.68;;;8.10;99.90;;;8.14;72.93;101442.22;5074620;28;20049;-68
2023/03/16 01:10:11;;;;;;;16.73;10.57;;;8.10;99.90;;;8.11;72.95;101427.22;5074264;28;20044;-68
2023/03/16 01:12:40;;;;;;;15.52;11.00;;;8.00;99.90;;;8.18;72.76;101437.03;5073155;28;20127;-68
2023/03/16 01:15:10;;;;;;;14.13;11.15;;;8.00;99.90;;;8.25;73.37;101431.84;5073071;28;20128;-68
2023/03/16 01:17:40;;;;;;;13.20;10.82;;;8.10;99.90;;;8.23;73.53;101430.06;5074191;28;20040;-68
2023/03/16 01:20:13;;;;;;;17.17;11.20;;;8.10;99.90;;;8.28;74.05;101434.53;5072711;28;20048;-68
2023/03/16 01:22:41;;;;;;;13.77;11.05;;;8.10;99.90;;;8.07;74.62;101419.28;5072733;28;20495;-68
2023/03/16 01:25:11;;;;;;;19.88;10.98;;;8.00;99.90;;;7.78;74.17;101374.06;5074124;28;20051;-68
2023/03/16 01:27:42;;;;;;;13.90;11.65;;;7.90;99.90;;;8.00;75.05;101406.88;5072778;28;20431;-68
2023/03/16 01:30:12;;;;;;;17.80;12.48;;;7.90;99.90;;;8.01;75.12;101414.78;5072559;28;20048;-68
2023/03/16 01:32:41;;;;;;;15.27;11.88;;;7.90;99.90;;;8.15;74.95;101418.50;5072317;28;20052;-68
2023/03/16 01:35:14;;;;;;;15.48;11.15;;;8.00;99.90;;;8.19;75.35;101414.16;5072712;28;20048;-68
2023/03/16 01:37:42;;;;;;;18.35;11.20;;;8.00;99.90;;;8.00;74.44;101407.75;5074078;28;20102;-67
2023/03/16 01:40:21;;;;;;;16.15;11.38;;;8.00;99.90;;;8.16;75.06;101414.13;5073719;28;20068;-68
2023/03/16 01:43:01;;;;;;;16.20;12.27;;;8.00;99.90;;;8.21;75.39;101415.06;5072380;28;20396;-68
2023/03/16 01:46:23;;;;;;;16.38;12.23;;;8.00;99.90;;;8.32;75.59;101402.09;5072217;28;20462;-68
2023/03/16 01:49:05;;;;;;;15.35;11.27;;;8.20;99.90;;;8.42;75.37;101402.22;5072334;28;20057;-68
2023/03/16 01:51:42;;;;;;;16.90;11.73;;;8.30;99.90;;;8.37;74.96;101406.56;5072121;28;20048;-68
2023/03/16 01:54:21;;;;;;;15.27;11.02;;;8.30;99.90;;;8.39;75.69;101396.03;5071898;28;20101;-68
2023/03/16 01:56:56;;;;;;;17.20;11.45;;;8.30;99.90;;;8.40;75.97;101397.81;5072036;28;20056;-68
2023/03/16 01:59:31;;;;;;;16.05;11.77;;;8.30;99.90;;;8.47;76.21;101399.66;5072181;28;20555;-68
2023/03/16 02:02:01;;;;;;;13.02;10.70;;;8.30;99.90;;;8.51;76.53;101398.81;5071818;28;20135;-68
2023/03/16 02:04:42;;;;;;;14.65;10.80;;;8.40;99.90;;;8.44;77.24;101386.44;5071969;28;20086;-68
2023/03/16 02:07:15;;;;;;;14.18;9.85;;;8.30;99.90;;;8.48;77.99;101381.19;5072049;28;20055;-67
2023/03/16 02:09:49;;;;;;;13.52;10.73;;;8.30;99.90;;;8.49;78.34;101387.38;5071890;28;20083;-69
2023/03/16 02:12:19;;;;;;;14.88;11.07;;;8.30;99.90;;;8.47;78.80;101378.56;5072802;28;20139;-68
2023/03/16 02:14:52;;;;;;;18.05;11.48;;;8.30;99.90;;;8.49;79.52;101368.91;5071938;28;20048;-68
2023/03/16 02:17:24;;;;;;;18.90;11.77;;;8.30;99.90;;;8.47;79.99;101378.56;5073158;28;20040;-68
2023/03/16 02:20:11;;;;;;;14.25;11.10;;;8.30;99.90;;;8.45;80.37;101375.00;5071751;28;20045;-68
2023/03/16 02:22:46;;;;;;;13.48;10.77;;;8.30;99.90;;;8.49;80.87;101364.53;5072996;28;20055;-68
2023/03/16 02:25:18;;;;;;;15.25;10.35;;;8.30;99.90;;;8.35;81.68;101357.31;5071537;28;20040;-68
2023/03/16 02:27:58;;;;;;;17.45;11.38;;;8.20;99.90;;;8.40;82.21;101372.31;5071751;28;20048;-69
2023/03/16 02:30:28;;;;;;;15.85;11.13;;;8.20;99.90;;;8.32;82.99;101339.72;5071588;28;20055;-69
2023/03/16 02:33:03;;;;;;;16.58;12.00;;;8.20;99.90;;;8.33;83.03;101344.13;5071401;28;20044;-68
2023/03/16 02:35:32;;;;;;;15.43;11.18;;;8.20;99.90;;;8.34;83.55;101339.75;5071371;28;20056;-68
2023/03/16 02:38:02;;;;;;;15.25;10.82;;;8.20;99.90;;;8.38;84.00;101347.69;5071398;28;20048;-68
2023/03/16 02:40:37;;;;;;;16.95;10.95;;;8.20;99.90;;;8.43;84.16;101337.22;5071420;28;20537;-69
2023/03/16 02:43:15;;;;;;;18.58;10.70;;;8.20;99.90;;;8.47;84.28;101353.09;5071414;28;20083;-68
2023/03/16 02:45:54;;;;;;;16.15;10.57;;;8.30;99.90;;;8.38;84.71;101345.06;5071248;28;20044;-70
2023/03/16 02:48:31;;;;;;;15.05;10.60;;;8.20;99.90;;;8.40;85.32;101343.31;5071489;28;20044;-69
2023/03/16 02:50:59;;;;;;;15.02;10.02;;;8.20;99.90;;;8.32;85.44;101336.22;5071329;28;20048;-69
2023/03/16 02:53:28;;;;;;;14.70;10.15;;;8.20;99.90;;;8.26;85.76;101336.13;5071201;28;20499;-69
2023/03/16 02:55:58;;;;;;;14.82;10.38;;;8.10;99.90;;;8.35;85.90;101329.22;5071205;28;20052;-68
2023/03/16 02:58:26;;;;;;;18.80;10.95;;;8.20;99.90;;;8.44;86.21;101339.00;5071004;28;20056;-68
2023/03/16 03:00:57;;;;;;;19.38;11.45;;;8.20;99.90;;;8.41;86.13;101333.66;5072601;28;20404;-69
2023/03/16 03:03:25;;;;;;;14.63;11.30;;;8.30;99.90;;;8.28;86.39;101319.47;5071307;28;20052;-69
2023/03/16 03:05:53;;;;;;;16.08;11.63;;;8.20;99.90;;;8.23;86.92;101318.47;5072339;28;20048;-69
2023/03/16 03:08:22;;;;;;;18.85;13.00;;;8.10;99.90;;;8.00;87.85;101312.94;5071067;28;20044;-68
2023/03/16 03:10:51;;;;;;;19.75;11.90;;;8.00;99.90;;;7.86;88.69;101309.22;5070879;28;20056;-68
2023/03/16 03:13:19;;;;;;;18.20;11.80;;;7.80;99.90;;;7.72;89.04;101321.34;5072524;28;20044;-68
2023/03/16 03:15:48;;;;;;;18.98;12.55;;;7.70;99.90;;;7.57;90.04;101301.81;5071105;28;20051;-69
2023/03/16 03:18:17;;;;;;;20.95;12.52;;;7.50;99.90;;;7.64;90.14;101308.91;5071123;28;20086;-69
2023/03/16 03:20:46;;;;;;;20.63;12.87;;;7.60;99.90;;;7.66;90.27;101304.56;5072200;28;20495;-68
2023/03/16 03:23:15;;;;;;;15.93;11.85;;;7.60;99.90;;;7.63;90.45;101289.59;5072123;28;20044;-69
2023/03/16 03:25:46;;;;;;;20.95;12.70;;;7.50;99.90;;;7.59;90.21;101292.19;5071083;28;20511;-68
2023/03/16 03:28:15;;;;;;;14.07;10.93;;;7.50;99.90;;;7.54;90.45;101297.38;5072399;28;20055;-69
2023/03/16 03:30:45;;;;;;;21.83;12.10;;;7.50;99.90;;;7.67;90.19;101307.22;5070953;28;20071;-67
2023/03/16 03:33:13;;;;;;;18.73;11.68;;;7.50;99.90;;;7.59;89.82;101277.25;5072002;28;20098;-68
2023/03/16 03:35:43;;;;;;;19.77;11.60;;;7.50;99.90;;;7.60;89.97;101284.31;5072020;28;20586;-68
2023/03/16 03:38:11;;;;;;;18.08;11.20;;;7.50;99.90;;;7.74;89.73;101289.75;5070744;28;20143;-68
2023/03/16 03:40:44;;;;;;;19.13;12.38;;;7.60;99.90;;;7.67;89.87;101283.50;5070861;28;20048;-69
2023/03/16 03:43:13;;;;;;;19.88;12.13;;;7.50;99.90;;;7.78;89.74;101287.16;5070722;28;20415;-69
2023/03/16 03:45:44;;;;;;;17.40;11.77;;;7.60;99.90;;;7.73;89.35;101294.13;5070769;28;20079;-69
2023/03/16 03:48:13;;;;;;;18.77;11.25;;;7.70;99.90;;;7.74;89.68;101277.47;5071939;28;20473;-68
2023/03/16 03:50:42;;;;;;;14.25;11.55;;;7.60;99.90;;;7.76;89.42;101294.16;5071899;28;20040;-68
2023/03/16 03:53:36;;;;;;;14.50;10.75;;;7.60;99.90;;;7.63;89.83;101281.69;5067829;28;20056;-68
2023/03/16 03:56:17;;;;;;;18.70;11.35;;;7.50;99.90;;;7.77;90.08;101280.16;5070719;28;20050;-68
2023/03/16 03:58:46;;;;;;;19.67;11.43;;;7.60;99.90;;;7.70;89.86;101286.22;5071795;28;20075;-68
2023/03/16 04:01:21;;;;;;;13.82;10.98;;;7.60;99.90;;;7.60;90.33;101301.84;5070696;28;20068;-69
2023/03/16 04:03:49;;;;;;;15.95;11.73;;;7.50;99.90;;;7.64;90.33;101286.13;5070547;28;20093;-68
2023/03/16 04:06:19;;;;;;;17.00;10.52;;;7.50;99.90;;;7.54;90.35;101278.06;5070547;28;20205;-68
2023/03/16 04:08:48;;;;;;;14.40;10.67;;;7.50;99.90;;;7.61;90.76;101280.78;5071972;28;20075;-68
2023/03/16 04:11:19;;;;;;;16.23;11.10;;;7.50;99.90;;;7.43;90.82;101290.19;5070425;28;20052;-68
2023/03/16 04:13:50;;;;;;;15.85;10.52;;;7.40;99.90;;;7.40;90.83;101254.16;5070523;28;20059;-69
2023/03/16 04:16:19;;;;;;;15.20;10.77;;;7.40;99.90;;;7.44;91.10;101276.16;5070495;28;20049;-68
2023/03/16 04:18:51;;;;;;;13.40;10.75;;;7.30;99.90;;;7.56;91.02;101277.22;5072523;28;20043;-68
2023/03/16 04:21:22;;;;;;;14.82;11.55;;;7.40;99.90;;;7.47;91.63;101268.31;5075160;28;20106;-68
2023/03/16 04:23:53;;;;;;;18.85;11.63;;;7.30;99.90;;;7.54;91.94;101284.22;5073882;28;20048;-68
2023/03/16 04:26:26;;;;;;;12.90;10.48;;;7.40;99.90;;;7.56;92.17;101269.31;5074116;28;20045;-68
2023/03/16 04:28:54;;;;;;;13.95;10.63;;;7.50;99.90;;;7.50;92.07;101260.44;5073869;28;20048;-68
2023/03/16 04:31:23;;;;;;;14.30;10.63;;;7.40;99.90;;;7.49;92.98;101261.31;5073831;28;20086;-68
2023/03/16 04:33:53;;;;;;;14.93;10.93;;;7.40;99.90;;;7.49;93.25;101270.09;5073566;28;20059;-68
2023/03/16 04:36:24;;;;;;;19.15;11.10;;;7.40;99.90;;;7.39;93.74;101265.56;5073617;28;20048;-68
2023/03/16 04:38:54;;;;;;;14.45;10.32;;;7.30;99.90;;;7.47;93.79;101256.00;5073798;28;20507;-68
2023/03/16 04:41:23;;;;;;;14.93;10.00;;;7.40;99.90;;;7.39;94.11;101254.16;5073530;28;20579;-68
2023/03/16 04:43:58;;;;;;;14.75;10.35;;;7.30;99.90;;;7.41;94.51;101245.44;5073601;28;20143;-68
2023/03/16 04:46:28;;;;;;;14.30;10.40;;;7.30;99.90;;;7.26;94.81;101247.81;5073573;28;20052;-68
2023/03/16 04:48:58;;;;;;;16.17;10.63;;;7.20;99.90;;;7.20;95.48;101239.84;5073390;28;20063;-69
2023/03/16 04:51:30;;;;;;;13.80;10.57;;;7.10;99.90;;;7.23;96.18;101234.63;5073510;28;20055;-68
2023/03/16 04:54:11;;;;;;;16.48;10.68;;;7.00;99.90;;;7.19;96.42;101222.28;5073472;28;20522;-68
2023/03/16 04:56:42;;;;;;;17.98;10.55;;;7.10;99.90;;;7.08;96.58;101243.16;5073432;28;20590;-68
2023/03/16 04:59:19;;;;;;;18.92;10.50;;;7.00;99.90;;;7.10;97.17;101232.69;5073232;28;20475;-69
2023/03/16 05:01:57;;;;;;;13.43;10.38;;;7.00;99.90;;;7.08;97.40;101216.00;5073333;28;20055;-68
2023/03/16 05:04:25;;;;;;;12.23;9.25;;;6.90;99.90;;;6.97;97.52;101233.31;5073181;28;20044;-68
2023/03/16 05:06:55;;;;;;;14.95;9.73;;;6.80;99.90;;;6.94;98.18;101231.56;5074543;28;20071;-69
2023/03/16 05:09:28;;;;;;;13.02;9.40;;;6.80;99.90;;;6.92;98.24;101206.97;5073104;28;20113;-69
2023/03/16 05:11:56;;;;;;;15.40;10.02;;;6.80;99.90;;;6.79;99.29;101223.44;5074544;28;20508;-68
2023/03/16 05:14:24;;;;;;;14.52;10.00;;;6.70;99.90;;;6.81;99.08;101213.81;5074476;28;20047;-68
2023/03/16 05:17:05;;;;;;;14.73;9.45;;;6.70;99.90;;;6.85;99.52;101217.38;5072995;28;20054;-69
2023/03/16 05:19:34;;;;;;;14.80;9.38;;;6.70;99.90;;;6.92;98.89;101212.25;5072915;28;20083;-69
2023/03/16 05:22:04;;;;;;;15.88;9.30;;;6.80;99.90;;;6.87;99.45;101197.25;5073969;28;20049;-69
2023/03/16 05:24:32;;;;;;;12.35;8.75;;;6.70;99.90;;;6.88;99.37;101220.94;5072839;28;20450;-69
2023/03/16 05:27:02;;;;;;;12.85;8.48;;;6.70;99.90;;;6.89;99.33;101209.53;5074140;28;20060;-68
2023/03/16 05:29:31;;;;;;;14.73;9.30;;;6.80;99.90;;;6.74;99.74;101190.91;5072958;28;20057;-68
2023/03/16 05:31:59;;;;;;;11.40;8.27;;;6.80;99.90;;;6.89;99.36;101230.56;5072817;28;20083;-68
2023/03/16 05:34:30;;;;;;;11.68;7.95;;;6.70;99.90;;;6.87;99.19;101223.56;5072345;28;20499;-68
2023/03/16 05:36:58;;;;;;;11.93;8.20;;;6.80;99.90;;;6.88;99.60;101230.56;5072336;28;20053;-68
2023/03/16 05:39:29;;;;;;;13.25;9.02;;;6.80;99.90;;;6.89;99.76;101203.44;5072618;28;20049;-68
2023/03/16 05:41:58;;;;;;;9.23;8.18;;;6.80;99.90;;;6.93;99.40;101221.03;5072448;28;20084;-68
2023/03/16 05:44:40;;;;;;;11.30;8.15;;;6.80;99.90;;;6.99;99.29;101213.19;5072368;28;20048;-68
2023/03/16 05:47:21;;;;;;;;;;;6.80;99.90;;;6.95;98.92;101217.53;5072630;28;20049;-69
2023/03/16 05:49:54;;;;;;;16.00;7.85;;;6.90;99.90;;;6.97;98.85;101214.91;5072377;28;20020;-69
2023/03/16 05:52:32;;;;;;;13.52;8.15;;;6.80;99.90;;;7.08;99.03;101223.88;5072381;28;20569;-68
2023/03/16 05:55:08;;;;;;;10.77;7.35;;;6.90;99.90;;;7.01;98.98;101233.41;5072219;28;20044;-69
2023/03/16 05:57:37;;;;;;;14.00;8.02;;;6.90;99.90;;;7.07;98.56;101222.09;5072057;28;20479;-68
2023/03/16 06:00:14;;;;;;;14.98;7.97;;;7.00;99.90;;;7.12;98.71;101212.56;5072169;28;20048;-69
2023/03/16 06:02:51;;;;;;;11.20;7.57;;;7.00;99.90;;;7.12;98.24;101204.66;5072280;28;20060;-68
2023/03/16 06:05:23;;;;;;;10.02;6.72;;;7.00;99.90;;;7.08;98.12;101211.59;5088953;28;20048;-68
2023/03/16 06:07:52;;;;;;;;;;;7.00;99.90;;;7.01;98.22;101216.75;5073772;28;20042;-69
2023/03/16 06:10:22;;;;;;;11.90;7.15;;;6.90;99.90;;;7.07;97.74;101207.22;5088709;28;19924;-69
2023/03/16 06:12:51;;;;;;;10.35;7.25;;;7.00;99.90;;;7.03;97.88;101204.50;5071967;28;20044;-69
2023/03/16 06:15:23;;;;;;;12.47;7.10;;;6.90;99.90;;;7.09;97.89;101189.72;5071854;28;20076;-68
2023/03/16 06:17:52;;;;;;;11.30;7.35;;;6.90;99.90;;;7.09;97.90;101209.84;5071655;28;20344;-69
2023/03/16 06:20:21;;;;;;;9.82;7.20;;;7.00;99.90;;;7.08;97.32;101200.22;5071710;28;20040;-69
2023/03/16 06:22:50;;;;;;;10.48;7.03;;;6.90;99.90;;;7.02;98.11;101214.16;5071476;28;20102;-69
2023/03/16 06:25:19;;;;;;;10.23;7.03;;;6.90;99.90;;;7.04;97.82;101187.88;5071754;28;20087;-68
2023/03/16 06:27:49;;;;;;;14.55;7.65;;;7.00;99.90;;;7.20;97.92;101205.66;5071599;28;20044;-68
2023/03/16 06:30:18;;;;;;;9.02;7.32;;;7.00;99.90;;;7.23;97.62;101182.00;5071597;28;20099;-69
2023/03/16 06:32:47;;;;;;;9.43;7.70;;;7.10;99.90;;;7.06;97.81;101188.78;5072591;28;20088;-68
2023/03/16 06:35:16;;;;;;;11.30;7.45;;;7.00;99.90;;;7.08;98.30;101168.66;5072608;28;20072;-69
2023/03/16 06:37:52;;;;;;;8.48;6.82;;;6.90;99.90;;;7.06;97.74;101173.00;5071790;28;20135;-69
2023/03/16 06:40:30;;;;;;;10.00;7.35;;;6.90;99.90;;;6.87;97.66;101142.06;5071023;28;20045;-68
2023/03/16 06:43:00;;;;;;;9.65;7.97;;;6.90;99.90;;;7.06;97.80;101166.00;5071108;28;20053;-69
2023/03/16 06:45:30;;;;;;;15.85;8.02;;;6.90;99.90;;;7.18;97.28;101160.03;5071240;28;20079;-68
2023/03/16 06:47:58;;;;;;;14.65;8.05;;;7.00;99.90;;;7.08;97.01;101166.88;5071155;28;20143;-68
2023/03/16 06:50:27;;;;;;;11.98;7.63;;;7.00;99.90;;;7.10;96.82;101170.41;5071329;28;20444;-69
2023/03/16 06:52:56;;;;;;;9.23;7.22;;;7.00;99.90;;;7.18;96.66;101162.66;5072628;28;20048;-68
2023/03/16 06:55:25;;;;;;;15.75;7.57;;;7.10;99.90;;;7.12;96.41;101165.22;5071197;28;20094;-69
2023/03/16 06:57:54;;;;;;;12.07;7.22;;;7.00;99.90;;;7.17;96.71;101160.88;5071037;28;20487;-69
2023/03/16 07:00:26;;;;;;;11.03;7.53;;;7.00;99.90;;;6.55;96.40;101051.31;5071413;28;20735;-69
2023/03/16 07:02:55;;;;;;;12.45;7.05;;;7.10;99.90;;;7.03;96.21;101158.06;5071117;28;20495;-68
2023/03/16 07:05:23;;;;;;;16.08;7.68;;;6.90;99.90;;;7.12;96.07;101154.69;5071118;28;20051;-69
2023/03/16 07:07:53;;;;;;;12.30;7.70;;;7.00;99.90;;;7.15;95.65;101175.75;5071068;28;20053;-68
2023/03/16 07:10:21;;;;;;;11.63;7.28;;;7.00;99.90;;;7.15;95.42;101154.72;5070807;28;20079;-68
2023/03/16 07:12:50;;;;;;;12.18;7.43;;;7.00;99.90;;;7.14;95.05;101172.25;5070695;28;20076;-69
2023/03/16 07:15:20;;;;;;;14.00;8.18;;;7.00;99.90;;;7.07;94.52;101137.94;5071205;28;20048;-69
2023/03/16 07:17:51;;;;;;;15.35;7.25;;;7.10;99.90;;;7.31;94.45;101154.06;5071023;28;20076;-69
2023/03/16 07:20:20;;;;;;;10.10;6.95;;;7.20;99.90;;;7.38;94.04;101155.00;5070966;28;20052;-69
2023/03/16 07:22:51;;;;;;;13.48;6.78;;;7.30;99.90;;;7.43;93.61;101158.59;5070923;28;20049;-69
2023/03/16 07:25:20;;;;;;;12.43;7.43;;;7.30;99.90;;;7.41;93.46;101150.69;5070703;28;20089;-68
2023/03/16 07:27:52;;;;;;;11.38;6.82;;;7.30;99.90;;;7.59;93.18;101161.44;5071233;28;20071;-69
2023/03/16 07:30:26;;;;;;;12.88;7.45;;;7.40;99.90;;;7.63;93.00;101152.72;5070776;28;20079;-69
2023/03/16 07:32:57;;;;;;;10.07;6.40;;;7.50;99.90;;;7.47;92.40;101150.75;5070404;28;20520;-68
2023/03/16 07:35:27;;;;;;;10.73;6.80;;;7.50;99.90;;;7.60;92.18;101159.69;5070665;28;20515;-68
2023/03/16 07:37:56;;;;;;;9.25;6.60;;;7.50;99.90;;;7.56;91.81;101148.25;5070552;28;20044;-68
2023/03/16 07:40:25;;;;;;;9.63;6.82;;;7.40;99.90;;;7.55;91.17;101148.25;5070820;28;20098;-68
2023/03/16 07:42:59;;;;;;;11.95;6.60;;;7.40;99.90;;;7.60;91.28;101160.59;5070731;28;20107;-68
2023/03/16 07:45:33;;;;;;;13.63;6.53;;;7.50;99.90;;;7.61;90.35;101157.06;5070793;28;20151;-68
2023/03/16 07:48:04;;;;;;;13.07;7.57;;;7.50;99.90;;;7.69;90.78;101151.91;5070722;28;20052;-68
2023/03/16 07:50:41;;;;;;;9.15;6.45;;;7.50;99.90;;;7.73;89.17;101175.66;5070895;28;20106;-68
2023/03/16 07:53:10;;;;;;;9.25;6.68;;;7.60;99.90;;;7.92;89.34;101164.47;5071749;28;20499;-68
2023/03/16 07:55:41;;;;;;;14.90;7.60;;;7.70;99.90;;;7.90;88.31;101174.09;5074506;28;20491;-68
2023/03/16 07:58:10;;;;;;;8.40;6.55;;;7.80;99.90;;;7.96;88.63;101166.25;5075711;28;20475;-68
2023/03/16 08:00:41;;;;;;;10.95;6.43;;;7.80;99.90;;;8.01;87.55;101159.28;5074337;28;20121;-68
2023/03/16 08:03:11;;;;;;;10.38;6.95;;;7.90;99.90;;;8.04;87.35;101155.81;5074495;28;20048;-68
2023/03/16 08:05:39;;;;;;;7.05;5.75;;;7.90;99.90;;;8.06;87.39;101157.59;5074321;28;20048;-68
2023/03/16 08:08:14;;;;;;;11.80;6.97;;;7.90;99.90;;;8.09;85.98;101162.88;5074261;28;20052;-68
2023/03/16 08:10:43;;;;;;;11.52;6.95;;;8.00;99.90;;;8.18;86.26;101196.34;5074070;28;20066;-68
2023/03/16 08:13:15;;;;;;;10.18;6.03;;;8.00;99.90;;;8.19;85.41;101172.66;5074037;28;20037;-69
2023/03/16 08:15:47;;;;;;;13.02;6.55;;;8.10;99.90;;;8.23;84.51;101174.44;5075487;28;20050;-67
2023/03/16 08:18:25;;;;;;;8.77;6.28;;;8.10;99.90;;;8.26;84.93;101165.75;5074083;28;20048;-67
2023/03/16 08:20:54;;;;;;;9.63;5.82;;;8.10;99.90;;;8.32;84.06;101149.09;5073919;28;20048;-68
2023/03/16 08:23:24;;;;;;;9.80;6.38;;;8.20;99.90;;;8.03;83.35;101131.22;5073900;28;20052;-67
2023/03/16 08:25:54;;;;;;;9.95;6.53;;;8.10;99.90;;;8.40;83.84;101155.31;5074108;28;20067;-67
2023/03/16 08:28:24;;;;;;;10.00;6.22;;;8.20;99.90;;;8.42;83.22;101148.31;5074070;28;20098;-67
2023/03/16 08:30:58;;;;;;;11.05;6.22;;;8.30;99.90;;;8.48;83.99;101153.66;5075224;28;20418;-67
2023/03/16 08:33:44;;;;;;;8.93;6.85;;;8.30;99.90;;;8.49;83.94;101144.84;5073218;28;20056;-67
2023/03/16 08:36:21;;;;;;;11.20;6.55;;;8.40;99.90;;;8.50;83.69;101150.13;5073290;28;20052;-67
2023/03/16 08:38:53;;;;;;;10.35;5.85;;;8.30;99.90;;;8.62;83.68;101160.78;5073472;28;20048;-67
2023/03/16 08:41:39;;;;;;;10.52;7.05;;;8.40;99.90;;;8.61;83.51;101137.03;5073585;28;20049;-67
2023/03/16 08:44:13;;;;;;;8.55;5.90;;;8.40;99.90;;;8.57;82.02;101149.34;5073365;28;20048;-67
2023/03/16 08:46:43;;;;;;;7.95;6.07;;;8.40;99.90;;;8.78;82.79;101156.50;5073234;28;20079;-67
2023/03/16 08:49:14;;;;;;;12.73;6.72;;;8.60;99.90;;;8.76;82.93;101134.53;5073646;28;20491;-68
2023/03/16 08:51:43;;;;;;;12.10;5.75;;;8.60;99.90;;;8.80;81.30;101142.47;5073407;28;20090;-67
2023/03/16 08:54:14;;;;;;;8.00;6.00;;;8.70;99.90;;;8.94;81.31;101145.22;5074598;28;20052;-68
2023/03/16 08:56:43;;;;;;;9.40;6.07;;;8.80;99.90;;;9.01;80.63;101142.63;5074377;28;20072;-67
2023/03/16 08:59:12;;;;;;;10.57;6.07;;;8.90;99.90;;;8.88;80.84;101124.91;5074253;28;20095;-67
2023/03/16 09:01:56;;;;;;;8.95;6.20;;;8.90;99.90;;;9.12;79.38;101129.47;5074346;28;20056;-67
2023/03/16 09:04:27;;;;;;;10.25;5.85;;;8.90;99.90;;;9.32;78.79;101135.75;5073999;28;20040;-67
2023/03/16 09:06:55;;;;;;;11.73;6.20;;;9.10;99.90;;;9.67;77.02;101127.97;5074177;28;20044;-69
2023/03/16 09:09:36;;;;;;;10.90;5.60;;;9.40;99.90;;;9.99;75.91;101136.84;5072774;28;20053;-68
2023/03/16 09:12:05;;;;;;;13.35;5.68;;;9.80;99.90;;;10.18;75.34;101127.25;5074652;28;20123;-66
2023/03/16 09:14:37;;;;;;;9.23;5.50;;;10.00;99.90;;;10.26;74.42;101120.22;5074042;28;20040;-66
2023/03/16 09:17:06;;;;;;;6.80;5.72;;;10.10;99.90;;;10.42;74.00;101151.94;5074170;28;20045;-65
2023/03/16 09:19:36;;;;;;;11.30;6.10;;;10.20;99.90;;;10.56;73.28;101138.72;5074034;28;20052;-65
2023/03/16 09:22:19;;;;;;;7.95;6.03;;;10.40;99.90;;;10.64;72.03;101151.06;5073922;28;20123;-66
2023/03/16 09:24:48;;;;;;;9.13;5.63;;;10.50;99.90;;;10.93;72.03;101127.22;5072706;28;20048;-65
2023/03/16 09:27:17;;;;;;;6.85;5.20;;;10.80;99.90;;;10.93;70.27;101156.34;5073686;28;20072;-65
2023/03/16 09:29:46;;;;;;;7.68;5.68;;;10.80;99.90;;;10.84;71.62;101137.78;5073843;28;20091;-67
2023/03/16 09:32:15;;;;;;;9.30;5.75;;;10.70;99.90;;;10.85;70.55;101160.75;5073704;28;20090;-67
2023/03/16 09:34:45;;;;;;;6.40;5.70;;;10.70;99.90;;;10.78;70.08;101135.19;5073949;28;20102;-66
2023/03/16 09:37:15;;;;;;;9.45;6.05;;;10.70;99.90;;;10.84;70.65;101113.97;5073725;28;20537;-66
2023/03/16 09:39:44;;;;;;;10.53;5.80;;;10.70;99.90;;;10.99;70.45;101135.16;5073757;28;20045;-67
2023/03/16 09:42:20;;;;;;;7.68;5.70;;;10.90;99.90;;;10.95;70.31;101146.63;5073513;28;20295;-66
2023/03/16 09:45:03;;;;;;;10.68;6.13;;;10.80;99.90;;;11.14;69.27;101106.00;5073448;28;20044;-67
2023/03/16 09:47:34;;;;;;;9.60;5.93;;;10.90;99.90;;;10.89;68.80;101121.06;5073566;28;20063;-67
2023/03/16 09:50:09;;;;;;;8.40;5.15;;;10.80;99.90;;;10.78;69.08;101130.75;5072323;28;20087;-67
2023/03/16 09:52:55;;;;;;;6.35;5.55;;;10.70;99.90;;;10.94;68.88;101121.03;5073388;28;20132;-66
2023/03/16 09:55:30;;;;;;;10.82;4.95;;;10.70;99.90;;;11.02;69.28;101158.94;5073277;28;20052;-67
2023/03/16 09:58:00;;;;;;;7.68;5.43;;;10.80;99.90;;;11.00;68.92;101126.31;5073285;28;20052;-67
2023/03/16 10:00:34;;;;;;;10.80;5.40;;;10.80;99.90;;;11.02;69.19;101113.97;5073174;28;20083;-67
2023/03/16 10:03:20;;;;;;;10.50;6.00;;;10.80;99.90;;;11.12;68.58;101136.00;5073169;28;20040;-67
2023/03/16 10:05:57;;;;;;;7.65;5.25;;;10.90;99.90;;;11.04;67.49;101117.47;5073169;28;20124;-67
2023/03/16 10:08:31;;;;;;;9.07;5.53;;;10.90;99.90;;;11.16;67.38;101112.16;5073031;28;20044;-69
2023/03/16 10:11:24;;;;;;;8.48;5.32;;;11.00;99.90;;;11.08;67.53;101140.41;5073106;28;20075;-68
2023/03/16 10:13:58;;;;;;;9.23;5.40;;;11.00;99.90;;;11.14;67.16;101121.88;5064551;28;20503;-67
2023/03/16 10:16:32;;;;;;;10.93;5.18;;;11.00;99.90;;;11.27;67.54;101115.66;5072160;28;20048;-68
2023/03/16 10:19:03;;;;;;;9.55;4.78;;;11.10;99.90;;;11.58;67.09;101089.91;5073014;28;20055;-68
2023/03/16 10:21:39;;;;;;;8.85;5.45;;;11.40;99.90;;;11.76;66.33;101101.34;5073249;28;20045;-68
2023/03/16 10:24:19;;;;;;;10.07;5.20;;;11.50;99.90;;;11.87;65.87;101105.69;5072861;28;20106;-68
2023/03/16 10:26:55;;;;;;;13.55;5.78;;;11.70;99.90;;;11.79;64.70;101105.72;5072667;28;20492;-68
2023/03/16 10:29:23;;;;;;;9.57;5.82;;;11.60;99.90;;;11.91;65.79;101094.16;5071656;28;20044;-68
2023/03/16 10:31:52;;;;;;;7.85;5.38;;;11.70;99.90;;;11.91;63.35;101118.03;5072630;28;20036;-68
2023/03/16 10:34:22;;;;;;;9.02;5.20;;;11.70;99.90;;;11.91;64.85;101078.28;5071189;28;20060;-68
2023/03/16 10:36:55;;;;;;;12.10;6.38;;;11.70;99.90;;;11.90;63.32;101108.34;5072796;28;20045;-68